createdAt,value
2022-09-26T00:01:55.726Z,39.68
2022-09-26T00:06:57.908Z,39.95
2022-09-26T00:11:56.676Z,40.32
2022-09-26T00:16:56.188Z,39.79
2022-09-26T00:21:56.283Z,39.68
2022-09-26T00:26:55.118Z,39.77
2022-09-26T00:31:53.935Z,40.03
2022-09-26T00:36:52.836Z,40.03
2022-09-26T00:41:53.070Z,40.33
2022-09-26T00:46:52.508Z,40.69
2022-09-26T00:51:55.971Z,41.29
2022-09-26T00:57:00.340Z,41.38
2022-09-26T01:02:00.766Z,40.96
2022-09-26T01:07:07.349Z,40.99
2022-09-26T01:12:09.936Z,42.12
2022-09-26T01:17:09.867Z,42.39
2022-09-26T01:22:34.615Z,42.55
2022-09-26T01:27:48.082Z,41.77
2022-09-26T01:33:23.531Z,42.22
2022-09-26T01:38:33.771Z,42.10
2022-09-26T01:43:39.680Z,42.39
2022-09-26T01:48:45.278Z,42.36
2022-09-26T01:53:54.871Z,42.49
2022-09-26T01:59:00.098Z,42.36
2022-09-26T02:04:06.422Z,42.79
2022-09-26T02:09:13.744Z,43.65
2022-09-26T02:14:18.284Z,43.52
2022-09-26T02:19:21.789Z,43.17
2022-09-26T02:24:23.582Z,43.24
2022-09-26T02:29:23.008Z,43.11
2022-09-26T02:34:25.759Z,42.58
2022-09-26T02:39:26.308Z,43.42
2022-09-26T02:45:02.129Z,43.53
2022-09-26T02:50:18.367Z,43.67
2022-09-26T02:55:23.052Z,43.65
2022-09-26T03:00:31.823Z,44.20
2022-09-26T03:05:32.229Z,44.38
2022-09-26T03:10:35.268Z,44.88
2022-09-26T03:15:35.396Z,44.59
2022-09-26T03:20:36.256Z,44.67
2022-09-26T03:25:36.736Z,43.89
2022-09-26T03:30:38.536Z,43.90
2022-09-26T03:36:00.721Z,44.11
2022-09-26T03:41:00.917Z,44.08
2022-09-26T03:46:18.397Z,44.31
2022-09-26T03:51:17.247Z,44.72
2022-09-26T03:56:19.589Z,44.20
2022-09-26T04:01:21.564Z,44.60
2022-09-26T04:06:21.881Z,44.66
2022-09-26T04:11:25.389Z,44.43
2022-09-26T04:16:24.819Z,45.00
2022-09-26T04:21:37.082Z,44.80
2022-09-26T04:26:37.257Z,45.43
2022-09-26T04:31:47.647Z,45.63
2022-09-26T04:36:51.325Z,45.14
2022-09-26T04:41:55.870Z,45.52
2022-09-26T04:46:59.009Z,45.35
2022-09-26T04:52:14.553Z,45.40
2022-09-26T04:57:19.548Z,44.84
2022-09-26T05:02:19.061Z,45.10
2022-09-26T05:07:18.528Z,45.47
2022-09-26T05:12:18.688Z,45.30
2022-09-26T05:17:21.672Z,45.72
2022-09-26T05:22:21.522Z,45.51
2022-09-26T05:27:24.366Z,45.40
2022-09-26T05:32:23.296Z,44.35
2022-09-26T05:37:23.257Z,45.00
2022-09-26T05:42:23.813Z,44.95
2022-09-26T05:47:23.611Z,44.65
2022-09-26T05:52:23.122Z,44.72
2022-09-26T05:57:25.659Z,44.65
2022-09-26T06:02:26.670Z,44.74
2022-09-26T06:07:44.162Z,45.43
2022-09-26T06:12:51.173Z,45.00
2022-09-26T06:17:58.412Z,45.21
2022-09-26T06:22:57.626Z,45.98
2022-09-26T06:28:00.208Z,45.37
2022-09-26T06:32:59.876Z,46.65
2022-09-26T06:38:10.107Z,45.96
2022-09-26T06:43:10.261Z,44.33
2022-09-26T06:48:35.067Z,43.29
2022-09-26T06:53:40.673Z,42.66
2022-09-26T06:58:40.928Z,42.10
2022-09-26T07:03:45.137Z,42.06
2022-09-26T07:09:12.066Z,43.39
2022-09-26T07:14:28.128Z,42.75
2022-09-26T07:19:33.093Z,46.15
2022-09-26T07:24:37.629Z,42.90
2022-09-26T07:29:37.810Z,42.64
2022-09-26T07:34:36.916Z,42.47
2022-09-26T07:39:36.315Z,42.56
2022-09-26T07:50:15.237Z,42.77
2022-09-26T07:55:32.380Z,41.88
2022-09-26T08:01:02.534Z,41.52
2022-09-26T08:06:21.234Z,42.08
2022-09-26T08:11:21.401Z,41.69
2022-09-26T08:16:49.149Z,40.76
2022-09-26T08:21:50.294Z,40.21
2022-09-26T08:26:50.454Z,38.93
2022-09-26T08:31:54.931Z,38.68
2022-09-26T08:36:55.684Z,38.28
2022-09-26T08:42:41.905Z,37.24
2022-09-26T08:48:05.493Z,36.84
2022-09-26T08:53:17.090Z,36.02
2022-09-26T08:58:28.956Z,35.61
2022-09-26T09:03:35.363Z,35.50
2022-09-26T09:08:45.370Z,34.72
2022-09-26T09:14:15.248Z,32.72
2022-09-26T09:19:51.312Z,32.35
2022-09-26T09:25:32.360Z,32.28
2022-09-26T09:30:41.805Z,32.48
2022-09-26T09:36:06.771Z,32.38
2022-09-26T09:41:19.711Z,32.06
2022-09-26T09:46:25.458Z,31.60
2022-09-26T09:51:40.236Z,31.59
2022-09-26T09:56:52.175Z,32.13
2022-09-26T10:02:01.261Z,32.31
2022-09-26T10:07:02.076Z,32.83
2022-09-26T10:12:05.235Z,32.23
2022-09-26T10:17:29.677Z,31.59
2022-09-26T10:22:45.850Z,30.89
2022-09-26T10:28:01.211Z,30.32
2022-09-26T10:33:03.569Z,30.43
2022-09-26T10:38:21.965Z,29.36
2022-09-26T10:43:34.133Z,28.79
2022-09-26T10:48:48.396Z,28.14
2022-09-26T10:54:06.295Z,25.90
2022-09-26T10:59:09.087Z,22.48
2022-09-26T11:04:39.316Z,22.98
2022-09-26T11:10:02.861Z,22.36
2022-09-26T11:15:19.752Z,21.11
2022-09-26T11:20:36.556Z,21.70
2022-09-26T11:25:50.705Z,21.30
2022-09-26T11:30:56.764Z,19.59
2022-09-26T11:36:14.798Z,20.03
2022-09-26T11:41:39.500Z,18.14
2022-09-26T11:46:55.308Z,18.18
2022-09-26T11:52:29.730Z,17.51
2022-09-26T11:57:35.829Z,15.50
2022-09-26T12:02:56.218Z,16.51
2022-09-26T12:08:11.459Z,15.51
2022-09-26T12:13:20.871Z,15.12
2022-09-26T12:18:33.414Z,15.04
2022-09-26T12:23:38.455Z,14.88
2022-09-26T12:28:51.805Z,15.97
2022-09-26T12:34:13.453Z,16.45
2022-09-26T12:39:37.279Z,16.30
2022-09-26T12:45:01.533Z,16.72
2022-09-26T12:50:18.763Z,16.59
2022-09-26T12:55:27.612Z,16.67
2022-09-26T13:00:27.629Z,17.24
2022-09-26T13:05:56.921Z,17.56
2022-09-26T13:11:09.340Z,18.23
2022-09-26T13:16:25.226Z,18.51
2022-09-26T13:21:38.947Z,19.09
2022-09-26T13:26:43.941Z,19.21
2022-09-26T13:31:46.123Z,19.58
2022-09-26T13:36:47.021Z,19.74
2022-09-26T13:41:51.778Z,19.77
2022-09-26T13:47:03.835Z,19.69
2022-09-26T13:52:14.245Z,20.15
2022-09-26T13:57:31.853Z,20.53
2022-09-26T14:02:32.069Z,21.24
2022-09-26T14:08:09.017Z,21.81
2022-09-26T14:13:20.304Z,21.88
2022-09-26T14:18:32.683Z,22.13
2022-09-26T14:23:41.896Z,22.44
2022-09-26T14:28:48.068Z,23.04
2022-09-26T14:33:47.659Z,23.58
2022-09-26T14:38:50.789Z,24.36
2022-09-26T14:43:52.333Z,24.76
2022-09-26T14:48:59.728Z,24.60
2022-09-26T14:54:04.016Z,25.47
2022-09-26T14:59:40.336Z,26.63
2022-09-26T15:04:41.873Z,26.01
2022-09-26T15:09:45.537Z,24.67
2022-09-26T15:14:49.164Z,23.94
2022-09-26T15:19:52.199Z,23.70
2022-09-26T15:24:56.361Z,23.30
2022-09-26T15:29:58.064Z,22.87
2022-09-26T15:34:57.914Z,23.39
2022-09-26T15:39:58.856Z,23.58
2022-09-26T15:45:03.472Z,24.40
2022-09-26T15:50:13.520Z,24.77
2022-09-26T15:55:19.636Z,25.36
2022-09-26T16:00:19.427Z,25.59
2022-09-26T16:05:22.551Z,26.38
2022-09-26T16:10:28.558Z,26.85
2022-09-26T16:15:30.309Z,27.13
2022-09-26T16:20:31.499Z,28.03
2022-09-26T16:25:36.586Z,28.53
2022-09-26T16:30:42.345Z,29.20
2022-09-26T16:35:47.464Z,29.84
2022-09-26T16:40:53.797Z,30.14
2022-09-26T16:46:00.758Z,31.00
2022-09-26T16:51:15.380Z,31.32
2022-09-26T16:56:19.385Z,31.75
2022-09-26T17:01:36.702Z,31.86
2022-09-26T17:06:37.345Z,33.03
2022-09-26T17:11:37.789Z,33.44
2022-09-26T17:16:39.079Z,33.89
2022-09-26T17:21:38.867Z,35.00
2022-09-26T17:26:39.148Z,35.38
2022-09-26T17:31:38.890Z,35.71
2022-09-26T17:36:37.961Z,36.06
2022-09-26T17:41:38.301Z,36.45
2022-09-26T17:46:38.611Z,37.11
2022-09-26T17:51:37.794Z,37.12
2022-09-26T17:56:36.615Z,37.13
2022-09-26T18:01:36.971Z,37.30
2022-09-26T18:06:37.003Z,37.74
2022-09-26T18:11:37.426Z,37.88
2022-09-26T18:16:37.794Z,37.60
2022-09-26T18:21:38.796Z,37.75
2022-09-26T18:26:42.320Z,38.16
2022-09-26T18:31:45.316Z,38.90
2022-09-26T18:36:44.262Z,38.69
2022-09-26T18:41:45.215Z,39.53
2022-09-26T18:46:49.279Z,39.53
2022-09-26T18:51:48.502Z,40.82
2022-09-26T19:02:05.461Z,40.44
2022-09-26T19:07:08.573Z,40.80
2022-09-26T19:12:08.752Z,40.84
2022-09-26T19:17:09.619Z,40.73
2022-09-26T19:22:14.913Z,41.15
2022-09-26T19:27:17.552Z,41.16
2022-09-26T19:32:23.364Z,41.22
2022-09-26T19:37:23.860Z,41.11
2022-09-26T19:42:29.329Z,41.41
2022-09-26T19:47:38.241Z,41.34
2022-09-26T19:52:39.775Z,41.13
2022-09-26T19:57:44.135Z,42.10
2022-09-26T20:02:44.511Z,42.08
2022-09-26T20:07:44.656Z,42.37
2022-09-26T20:12:43.917Z,42.17
2022-09-26T20:17:47.872Z,42.34
2022-09-26T20:22:47.679Z,42.21
2022-09-26T20:27:46.810Z,42.50
2022-09-26T20:32:47.114Z,42.37
2022-09-26T20:37:46.260Z,42.95
2022-09-26T20:42:48.400Z,42.58
2022-09-26T20:47:48.664Z,42.63
2022-09-26T20:52:47.522Z,42.84
2022-09-26T20:57:46.731Z,43.09
2022-09-26T21:02:47.355Z,43.08
2022-09-26T21:07:51.124Z,43.26
2022-09-26T21:12:50.004Z,43.06
2022-09-26T21:17:50.375Z,43.63
2022-09-26T21:22:50.733Z,44.15
2022-09-26T21:27:52.384Z,44.23
2022-09-26T21:32:54.539Z,44.34
2022-09-26T21:37:56.997Z,44.56
2022-09-26T21:43:00.677Z,44.26
2022-09-26T21:47:59.671Z,44.70
2022-09-26T21:53:04.601Z,44.63
2022-09-26T21:58:06.394Z,45.40
2022-09-26T22:03:06.793Z,45.98
2022-09-26T22:08:07.080Z,47.01
2022-09-26T22:13:06.510Z,48.17
2022-09-26T22:18:05.642Z,47.97
2022-09-26T22:23:04.565Z,48.21
2022-09-26T22:28:05.027Z,48.53
2022-09-26T22:33:03.994Z,49.76
2022-09-26T22:38:02.925Z,49.39
2022-09-26T22:43:02.142Z,49.85
2022-09-26T22:48:02.746Z,52.41
2022-09-26T22:53:01.589Z,51.68
2022-09-26T22:58:00.571Z,50.77
2022-09-26T23:02:59.371Z,50.91
2022-09-26T23:07:59.620Z,51.26
2022-09-26T23:12:59.188Z,51.16
2022-09-26T23:17:57.998Z,51.47
2022-09-26T23:22:58.099Z,51.39
2022-09-26T23:27:58.402Z,51.68
2022-09-26T23:32:57.217Z,51.96
2022-09-26T23:37:58.131Z,52.48
2022-09-26T23:42:58.455Z,52.97
2022-09-26T23:47:57.528Z,52.91
2022-09-26T23:52:56.423Z,53.02
2022-09-26T23:57:58.922Z,52.69
